createdAt,value
2023-05-21T00:01:16.351Z,9.88
2023-05-21T00:03:46.131Z,11.25
2023-05-21T00:06:13.816Z,10.02
2023-05-21T00:08:41.336Z,10.40
2023-05-21T00:11:08.525Z,11.00
2023-05-21T00:13:35.517Z,11.85
2023-05-21T00:16:02.390Z,12.25
2023-05-21T00:18:32.336Z,11.80
2023-05-21T00:21:01.971Z,12.27
2023-05-21T00:23:30.291Z,11.82
2023-05-21T00:25:57.108Z,11.93
2023-05-21T00:28:23.959Z,11.27
2023-05-21T00:30:51.329Z,11.65
2023-05-21T00:33:18.115Z,11.85
2023-05-21T00:35:44.972Z,12.18
2023-05-21T00:38:11.786Z,11.77
2023-05-21T00:40:41.247Z,11.35
2023-05-21T00:43:10.745Z,11.55
2023-05-21T00:45:38.020Z,11.48
2023-05-21T00:48:06.259Z,10.85
2023-05-21T00:50:33.211Z,10.90
2023-05-21T00:53:00.175Z,10.07
2023-05-21T00:55:27.144Z,11.20
2023-05-21T00:57:54.848Z,10.70
2023-05-21T01:00:24.311Z,10.80
2023-05-21T01:02:51.259Z,10.05
2023-05-21T01:05:18.802Z,10.48
2023-05-21T01:07:46.623Z,10.77
2023-05-21T01:10:13.610Z,11.00
2023-05-21T01:12:43.730Z,10.13
2023-05-21T01:15:11.383Z,10.77
2023-05-21T01:17:39.806Z,10.93
2023-05-21T01:20:10.170Z,10.48
2023-05-21T01:22:42.355Z,10.65
2023-05-21T01:25:10.485Z,10.75
2023-05-21T01:27:37.223Z,10.30
2023-05-21T01:30:04.293Z,10.68
2023-05-21T01:33:04.999Z,10.05
2023-05-21T01:35:47.954Z,9.95
2023-05-21T01:38:19.249Z,11.07
2023-05-21T01:41:00.379Z,10.65
2023-05-21T01:43:31.565Z,10.30
2023-05-21T01:46:00.322Z,10.70
2023-05-21T01:48:29.268Z,10.15
2023-05-21T01:51:00.182Z,9.52
2023-05-21T01:53:27.098Z,10.07
2023-05-21T01:55:54.591Z,9.50
2023-05-21T01:58:22.840Z,9.77
2023-05-21T02:00:51.108Z,12.70
2023-05-21T02:03:19.394Z,13.38
2023-05-21T02:05:47.252Z,12.65
2023-05-21T02:08:15.323Z,12.35
2023-05-21T02:10:42.305Z,13.15
2023-05-21T02:13:09.120Z,12.52
2023-05-21T02:15:36.147Z,12.40
2023-05-21T02:18:03.940Z,12.00
2023-05-21T02:20:31.447Z,10.73
2023-05-21T02:22:58.180Z,11.13
2023-05-21T02:25:24.992Z,10.75
2023-05-21T02:27:56.724Z,10.27
2023-05-21T02:30:23.707Z,10.43
2023-05-21T02:32:50.873Z,10.18
2023-05-21T02:35:17.867Z,9.88
2023-05-21T02:37:44.718Z,10.70
2023-05-21T02:40:12.505Z,10.05
2023-05-21T02:42:40.461Z,9.82
2023-05-21T02:45:11.959Z,10.55
2023-05-21T02:47:39.255Z,10.85
2023-05-21T02:50:07.772Z,10.85
2023-05-21T02:52:34.832Z,10.68
2023-05-21T02:55:01.622Z,9.70
2023-05-21T02:57:28.440Z,10.15
2023-05-21T02:59:55.228Z,10.18
2023-05-21T03:02:22.106Z,10.07
2023-05-21T03:04:50.875Z,9.68
2023-05-21T03:07:20.828Z,9.98
2023-05-21T03:09:47.692Z,9.80
2023-05-21T03:12:14.563Z,9.23
2023-05-21T03:14:44.075Z,9.10
2023-05-21T03:17:14.050Z,9.13
2023-05-21T03:19:41.920Z,9.23
2023-05-21T03:22:08.972Z,8.85
2023-05-21T03:24:36.722Z,8.52
2023-05-21T03:27:06.337Z,8.85
2023-05-21T03:29:33.885Z,8.05
2023-05-21T03:32:01.851Z,8.30
2023-05-21T03:34:28.783Z,8.25
2023-05-21T03:36:55.639Z,7.85
2023-05-21T03:39:23.627Z,8.15
2023-05-21T03:41:50.548Z,7.75
2023-05-21T03:44:17.460Z,8.23
2023-05-21T03:46:45.693Z,8.43
2023-05-21T03:49:13.538Z,8.40
2023-05-21T03:51:40.424Z,7.80
2023-05-21T03:54:07.245Z,8.25
2023-05-21T03:56:33.996Z,8.10
2023-05-21T03:59:01.456Z,7.95
2023-05-21T04:01:28.468Z,8.35
2023-05-21T04:03:55.696Z,7.95
2023-05-21T04:06:22.846Z,8.38
2023-05-21T04:08:49.904Z,8.15
2023-05-21T04:11:16.953Z,8.15
2023-05-21T04:13:43.902Z,7.65
2023-05-21T04:16:10.885Z,7.40
2023-05-21T04:18:37.743Z,8.50
2023-05-21T04:21:04.906Z,8.05
2023-05-21T04:23:31.902Z,8.27
2023-05-21T04:25:58.987Z,8.18
2023-05-21T04:28:28.647Z,7.68
2023-05-21T04:30:56.610Z,8.02
2023-05-21T04:33:24.572Z,8.77
2023-05-21T04:35:52.071Z,8.30
2023-05-21T04:38:19.899Z,8.20
2023-05-21T04:40:51.033Z,8.43
2023-05-21T04:43:25.429Z,8.82
2023-05-21T04:45:54.740Z,8.02
2023-05-21T04:48:27.004Z,7.85
2023-05-21T04:50:54.341Z,7.90
2023-05-21T04:53:22.030Z,8.27
2023-05-21T04:55:49.186Z,8.05
2023-05-21T04:58:18.344Z,7.20
2023-05-21T05:00:50.897Z,8.30
2023-05-21T05:03:18.340Z,8.13
2023-05-21T05:05:45.786Z,8.48
2023-05-21T05:08:15.354Z,8.48
2023-05-21T05:10:42.839Z,8.57
2023-05-21T05:13:09.971Z,7.97
2023-05-21T05:15:37.195Z,8.32
2023-05-21T05:18:04.312Z,8.13
2023-05-21T05:20:31.199Z,8.32
2023-05-21T05:22:58.067Z,8.18
2023-05-21T05:25:25.053Z,8.30
2023-05-21T05:27:51.858Z,8.90
2023-05-21T05:30:18.673Z,8.45
2023-05-21T05:32:45.790Z,9.23
2023-05-21T05:35:13.000Z,9.00
2023-05-21T05:37:39.802Z,9.00
2023-05-21T05:40:08.142Z,8.45
2023-05-21T05:42:35.004Z,9.18
2023-05-21T05:45:01.872Z,9.05
2023-05-21T05:47:28.712Z,9.40
2023-05-21T05:49:55.646Z,9.57
2023-05-21T05:52:22.428Z,9.00
2023-05-21T05:54:49.193Z,9.27
2023-05-21T05:57:16.028Z,9.27
2023-05-21T05:59:42.785Z,9.27
2023-05-21T06:02:09.706Z,9.80
2023-05-21T06:04:36.469Z,9.43
2023-05-21T06:07:03.303Z,9.23
2023-05-21T06:09:30.121Z,9.77
2023-05-21T06:11:57.141Z,9.48
2023-05-21T06:14:23.970Z,9.70
2023-05-21T06:16:50.796Z,9.23
2023-05-21T06:19:17.848Z,9.70
2023-05-21T06:21:45.534Z,9.10
2023-05-21T06:24:12.361Z,9.93
2023-05-21T06:26:39.410Z,9.90
2023-05-21T06:29:06.382Z,9.90
2023-05-21T06:31:33.389Z,10.10
2023-05-21T06:34:00.969Z,9.60
2023-05-21T06:36:30.060Z,10.15
2023-05-21T06:38:57.299Z,10.43
2023-05-21T06:41:24.698Z,9.82
2023-05-21T06:43:51.519Z,10.05
2023-05-21T06:46:18.384Z,9.32
2023-05-21T06:48:46.335Z,9.93
2023-05-21T06:51:13.378Z,10.23
2023-05-21T06:53:40.250Z,9.55
2023-05-21T06:56:07.278Z,9.82
2023-05-21T06:58:34.133Z,10.02
2023-05-21T07:01:01.752Z,10.73
2023-05-21T07:03:28.893Z,10.75
2023-05-21T07:05:57.958Z,10.25
2023-05-21T07:08:24.812Z,10.50
2023-05-21T07:10:51.592Z,10.38
2023-05-21T07:13:18.419Z,11.23
2023-05-21T07:15:45.212Z,10.32
2023-05-21T07:18:12.159Z,11.45
2023-05-21T07:20:39.053Z,10.77
2023-05-21T07:23:05.908Z,10.77
2023-05-21T07:25:32.691Z,10.65
2023-05-21T07:27:59.533Z,10.65
2023-05-21T07:30:26.353Z,10.45
2023-05-21T07:32:53.170Z,10.15
2023-05-21T07:35:20.341Z,10.85
2023-05-21T07:37:47.931Z,10.52
2023-05-21T07:40:14.829Z,9.50
2023-05-21T07:42:41.650Z,9.73
2023-05-21T07:45:08.825Z,9.85
2023-05-21T07:47:35.949Z,9.93
2023-05-21T07:50:02.881Z,10.07
2023-05-21T07:52:29.759Z,10.57
2023-05-21T07:54:56.628Z,8.63
2023-05-21T07:57:23.518Z,8.90
2023-05-21T07:59:51.181Z,7.25
2023-05-21T08:02:18.023Z,7.45
2023-05-21T08:04:44.877Z,6.78
2023-05-21T08:07:12.982Z,6.85
2023-05-21T08:09:39.850Z,7.03
2023-05-21T08:12:07.268Z,6.25
2023-05-21T08:14:34.136Z,6.45
2023-05-21T08:17:01.044Z,6.75
2023-05-21T08:19:27.898Z,6.93
2023-05-21T08:21:54.796Z,6.93
2023-05-21T08:24:21.669Z,6.53
2023-05-21T08:26:50.508Z,6.88
2023-05-21T08:29:17.276Z,6.82
2023-05-21T08:31:44.190Z,5.97
2023-05-21T08:34:11.018Z,6.53
2023-05-21T08:36:38.271Z,6.13
2023-05-21T08:39:05.102Z,6.45
2023-05-21T08:41:35.027Z,6.57
2023-05-21T08:44:02.702Z,6.78
2023-05-21T08:46:33.931Z,6.75
2023-05-21T08:49:02.899Z,6.88
2023-05-21T08:51:30.928Z,6.50
2023-05-21T08:53:59.728Z,6.03
2023-05-21T08:56:27.172Z,5.88
2023-05-21T08:58:54.145Z,6.30
2023-05-21T09:01:24.740Z,6.38
2023-05-21T09:04:05.075Z,6.20
2023-05-21T09:06:40.957Z,6.07
2023-05-21T09:09:19.742Z,6.20
2023-05-21T09:11:47.462Z,6.53
2023-05-21T09:14:15.964Z,5.78
2023-05-21T09:16:42.840Z,6.25
2023-05-21T09:19:09.687Z,6.85
2023-05-21T09:21:36.870Z,6.22
2023-05-21T09:24:04.255Z,6.57
2023-05-21T09:26:31.325Z,6.28
2023-05-21T09:29:00.155Z,6.18
2023-05-21T09:31:27.502Z,6.30
2023-05-21T09:33:55.774Z,6.45
2023-05-21T09:36:23.132Z,5.85
2023-05-21T09:38:51.954Z,6.43
2023-05-21T09:41:35.831Z,6.25
2023-05-21T09:44:03.350Z,6.55
2023-05-21T09:46:42.683Z,6.07
2023-05-21T09:49:26.389Z,6.57
2023-05-21T09:51:59.917Z,5.57
2023-05-21T09:54:33.009Z,5.95
2023-05-21T09:57:03.081Z,5.90
2023-05-21T09:59:38.217Z,5.50
2023-05-21T10:02:20.172Z,5.93
2023-05-21T10:04:50.437Z,6.13
2023-05-21T10:07:20.079Z,6.20
2023-05-21T10:09:49.032Z,5.63
2023-05-21T10:12:19.217Z,6.82
2023-05-21T10:14:50.570Z,5.65
2023-05-21T10:17:17.878Z,5.45
2023-05-21T10:19:46.466Z,6.05
2023-05-21T10:22:14.048Z,5.97
2023-05-21T10:24:42.300Z,5.97
2023-05-21T10:27:09.573Z,6.47
2023-05-21T10:29:38.758Z,5.90
2023-05-21T10:32:06.201Z,5.93
2023-05-21T10:34:36.807Z,6.00
2023-05-21T10:37:08.036Z,6.18
2023-05-21T10:39:35.792Z,6.07
2023-05-21T10:42:16.446Z,6.05
2023-05-21T10:45:08.325Z,5.55
2023-05-21T10:47:53.593Z,7.03
2023-05-21T10:50:39.784Z,6.72
2023-05-21T10:53:43.592Z,6.57
2023-05-21T10:56:30.636Z,5.88
2023-05-21T10:59:02.973Z,5.50
2023-05-21T11:01:34.121Z,5.00
2023-05-21T11:04:01.712Z,5.45
2023-05-21T11:06:28.609Z,5.50
2023-05-21T11:08:55.970Z,5.32
2023-05-21T11:11:48.403Z,5.65
2023-05-21T11:14:27.248Z,5.13
2023-05-21T11:19:21.395Z,4.70
2023-05-21T11:21:51.542Z,5.70
2023-05-21T11:24:21.419Z,5.78
2023-05-21T11:26:48.201Z,5.38
2023-05-21T11:29:15.925Z,5.22
2023-05-21T11:31:47.863Z,5.65
2023-05-21T11:34:32.175Z,5.47
2023-05-21T11:37:30.479Z,5.53
2023-05-21T11:39:58.925Z,5.70
2023-05-21T11:42:32.910Z,5.45
2023-05-21T11:45:01.770Z,5.50
2023-05-21T11:47:29.954Z,5.43
2023-05-21T11:50:02.000Z,5.75
2023-05-21T11:52:31.016Z,5.72
2023-05-21T11:54:58.350Z,5.90
2023-05-21T11:57:30.924Z,5.63
2023-05-21T11:59:59.154Z,5.97
2023-05-21T12:02:28.440Z,5.57
2023-05-21T12:05:00.204Z,6.28
2023-05-21T12:07:29.913Z,5.28
2023-05-21T12:09:57.239Z,5.35
2023-05-21T12:12:38.511Z,5.32
2023-05-21T12:15:13.608Z,5.13
2023-05-21T12:17:41.171Z,5.25
2023-05-21T12:20:10.660Z,5.20
2023-05-21T12:22:42.696Z,5.30
2023-05-21T12:25:10.292Z,5.50
2023-05-21T12:27:37.286Z,5.07
2023-05-21T12:30:04.673Z,5.07
2023-05-21T12:32:31.783Z,5.35
2023-05-21T12:34:58.716Z,5.20
2023-05-21T12:37:35.736Z,5.10
2023-05-21T12:40:11.748Z,5.53
2023-05-21T12:42:40.131Z,5.60
2023-05-21T12:45:08.187Z,5.47
2023-05-21T12:47:35.251Z,5.30
2023-05-21T12:50:11.752Z,5.45
2023-05-21T12:52:40.551Z,5.45
2023-05-21T12:55:09.593Z,5.47
2023-05-21T12:57:38.898Z,5.30
2023-05-21T13:00:07.234Z,5.30
2023-05-21T13:02:45.773Z,5.53
2023-05-21T13:05:17.899Z,5.15
2023-05-21T13:07:47.424Z,6.10
2023-05-21T13:10:16.822Z,4.93
2023-05-21T13:12:44.868Z,5.07
2023-05-21T13:15:12.493Z,5.13
2023-05-21T13:17:39.420Z,5.40
2023-05-21T13:20:09.454Z,5.47
2023-05-21T13:22:46.577Z,5.38
2023-05-21T13:25:21.515Z,5.80
2023-05-21T13:27:50.114Z,5.22
2023-05-21T13:30:17.686Z,5.05
2023-05-21T13:32:45.170Z,5.53
2023-05-21T13:35:12.550Z,5.28
2023-05-21T13:37:40.510Z,4.93
2023-05-21T13:40:11.083Z,5.35
2023-05-21T13:42:38.665Z,5.22
2023-05-21T13:45:10.605Z,5.07
2023-05-21T13:47:40.272Z,5.30
2023-05-21T13:50:08.482Z,4.65
2023-05-21T13:52:35.829Z,4.95
2023-05-21T13:55:02.869Z,5.20
2023-05-21T13:57:30.943Z,4.60
2023-05-21T13:59:58.805Z,4.82
2023-05-21T14:02:26.266Z,5.30
2023-05-21T14:04:53.813Z,4.97
2023-05-21T14:07:21.515Z,4.45
2023-05-21T14:09:48.449Z,4.53
2023-05-21T14:12:15.683Z,4.45
2023-05-21T14:14:42.538Z,4.57
2023-05-21T14:17:09.390Z,4.55
2023-05-21T14:19:36.256Z,5.13
2023-05-21T14:22:03.097Z,5.20
2023-05-21T14:24:29.880Z,4.72
2023-05-21T14:26:56.962Z,4.43
2023-05-21T14:29:23.809Z,4.50
2023-05-21T14:31:50.701Z,4.57
2023-05-21T14:34:17.667Z,4.68
2023-05-21T14:36:44.606Z,5.05
2023-05-21T14:39:11.588Z,4.80
2023-05-21T14:41:41.192Z,4.47
2023-05-21T14:44:08.272Z,4.75
2023-05-21T14:46:35.403Z,4.22
2023-05-21T14:49:05.147Z,4.30
2023-05-21T14:51:32.147Z,3.72
2023-05-21T14:53:59.077Z,3.72
2023-05-21T14:56:28.225Z,3.92
2023-05-21T14:58:55.692Z,4.32
2023-05-21T15:01:22.721Z,4.13
2023-05-21T15:03:49.735Z,4.28
2023-05-21T15:06:16.700Z,4.15
2023-05-21T15:08:43.573Z,4.18
2023-05-21T15:11:10.429Z,4.15
2023-05-21T15:13:37.869Z,4.22
2023-05-21T15:16:04.994Z,4.30
2023-05-21T15:18:31.884Z,4.57
2023-05-21T15:20:59.215Z,3.90
2023-05-21T15:23:26.011Z,4.50
2023-05-21T15:25:52.957Z,4.15
2023-05-21T15:28:20.019Z,4.13
2023-05-21T15:30:46.825Z,5.00
2023-05-21T15:33:13.780Z,4.13
2023-05-21T15:35:41.190Z,4.53
2023-05-21T15:38:08.404Z,4.70
2023-05-21T15:40:35.261Z,4.15
2023-05-21T15:43:02.139Z,4.53
2023-05-21T15:45:28.919Z,4.45
2023-05-21T15:47:55.728Z,4.63
2023-05-21T15:50:22.610Z,4.50
2023-05-21T15:52:51.051Z,4.97
2023-05-21T15:55:20.205Z,4.30
2023-05-21T15:57:47.008Z,4.45
2023-05-21T16:00:14.155Z,4.95
2023-05-21T16:02:41.998Z,4.78
2023-05-21T16:05:09.384Z,4.25
2023-05-21T16:07:37.892Z,4.53
2023-05-21T16:10:06.075Z,4.70
2023-05-21T16:12:32.828Z,5.18
2023-05-21T16:14:59.609Z,4.47
2023-05-21T16:17:26.648Z,5.05
2023-05-21T16:19:53.511Z,4.53
2023-05-21T16:22:20.819Z,4.93
2023-05-21T16:24:48.171Z,4.72
2023-05-21T16:27:15.334Z,5.00
2023-05-21T16:29:42.688Z,5.40
2023-05-21T16:32:10.644Z,4.57
2023-05-21T16:34:37.691Z,4.93
2023-05-21T16:37:07.182Z,4.65
2023-05-21T16:39:34.133Z,4.80
2023-05-21T16:42:01.333Z,5.82
2023-05-21T16:44:28.239Z,5.07
2023-05-21T16:46:55.041Z,4.80
2023-05-21T16:49:21.995Z,5.07
2023-05-21T16:51:48.859Z,4.88
2023-05-21T16:54:15.833Z,4.97
2023-05-21T16:56:42.588Z,5.07
2023-05-21T16:59:09.465Z,5.35
2023-05-21T17:01:36.616Z,5.03
2023-05-21T17:04:03.651Z,5.30
2023-05-21T17:06:31.697Z,5.35
2023-05-21T17:08:58.614Z,5.40
2023-05-21T17:11:25.591Z,5.00
2023-05-21T17:13:52.356Z,5.03
2023-05-21T17:16:19.366Z,5.30
2023-05-21T17:18:46.175Z,5.07
2023-05-21T17:21:13.612Z,5.18
2023-05-21T17:23:42.784Z,5.38
2023-05-21T17:26:09.723Z,5.28
2023-05-21T17:28:36.643Z,5.03
2023-05-21T17:31:03.867Z,5.40
2023-05-21T17:33:31.064Z,5.25
2023-05-21T17:35:57.802Z,5.22
2023-05-21T17:38:30.004Z,5.05
2023-05-21T17:40:58.479Z,4.80
2023-05-21T17:43:27.598Z,5.45
2023-05-21T17:45:54.521Z,4.88
2023-05-21T17:48:21.524Z,5.32
2023-05-21T17:50:48.483Z,5.07
2023-05-21T17:53:16.466Z,4.80
2023-05-21T17:55:43.310Z,5.32
2023-05-21T17:58:10.146Z,5.38
2023-05-21T18:00:37.116Z,5.43
2023-05-21T18:03:04.430Z,5.85
2023-05-21T18:05:31.381Z,5.72
2023-05-21T18:08:01.040Z,5.90
2023-05-21T18:10:27.919Z,6.07
2023-05-21T18:12:54.732Z,6.22
2023-05-21T18:15:21.567Z,5.47
2023-05-21T18:17:48.412Z,6.15
2023-05-21T18:20:15.275Z,6.32
2023-05-21T18:22:42.185Z,6.22
2023-05-21T18:25:09.484Z,6.18
2023-05-21T18:27:36.897Z,5.88
2023-05-21T18:30:06.353Z,7.55
2023-05-21T18:32:39.196Z,7.07
2023-05-21T18:35:11.180Z,7.90
2023-05-21T18:37:41.592Z,8.38
2023-05-21T18:40:09.070Z,7.82
2023-05-21T18:42:36.318Z,7.45
2023-05-21T18:45:10.316Z,6.28
2023-05-21T18:47:39.116Z,6.13
2023-05-21T18:50:11.428Z,7.28
2023-05-21T18:52:38.283Z,7.43
2023-05-21T18:55:05.852Z,7.15
2023-05-21T18:57:34.757Z,7.65
2023-05-21T19:00:01.661Z,6.25
2023-05-21T19:02:31.317Z,6.20
2023-05-21T19:04:59.022Z,6.40
2023-05-21T19:07:25.932Z,6.43
2023-05-21T19:09:52.787Z,6.55
2023-05-21T19:12:19.617Z,6.10
2023-05-21T19:14:46.698Z,5.60
2023-05-21T19:17:16.644Z,6.18
2023-05-21T19:19:43.421Z,6.18
2023-05-21T19:22:11.557Z,6.35
2023-05-21T19:24:38.401Z,6.50
2023-05-21T19:27:05.787Z,6.47
2023-05-21T19:29:32.687Z,6.10
2023-05-21T19:31:59.513Z,6.25
2023-05-21T19:34:26.969Z,7.25
2023-05-21T19:36:54.169Z,6.90
2023-05-21T19:39:21.384Z,6.57
2023-05-21T19:41:48.280Z,6.68
2023-05-21T19:44:15.252Z,6.72
2023-05-21T19:46:42.044Z,7.15
2023-05-21T19:49:10.924Z,7.10
2023-05-21T19:51:37.782Z,7.03
2023-05-21T19:54:04.711Z,6.82
2023-05-21T19:56:31.450Z,6.70
2023-05-21T19:58:58.265Z,7.03
2023-05-21T20:01:25.446Z,6.60
2023-05-21T20:03:52.351Z,7.30
2023-05-21T20:06:20.704Z,7.03
2023-05-21T20:08:47.888Z,6.78
2023-05-21T20:11:14.986Z,6.90
2023-05-21T20:13:42.201Z,7.13
2023-05-21T20:16:10.504Z,7.90
2023-05-21T20:18:37.454Z,7.78
2023-05-21T20:21:06.396Z,7.80
2023-05-21T20:23:33.308Z,7.80
2023-05-21T20:26:00.258Z,7.97
2023-05-21T20:28:27.086Z,8.18
2023-05-21T20:30:59.365Z,7.72
2023-05-21T20:33:27.945Z,7.90
2023-05-21T20:35:54.802Z,7.20
2023-05-21T20:38:21.662Z,7.47
2023-05-21T20:40:48.625Z,7.32
2023-05-21T20:43:15.560Z,8.05
2023-05-21T20:45:43.607Z,8.20
2023-05-21T20:48:12.004Z,8.00
2023-05-21T20:50:40.885Z,6.75
2023-05-21T20:53:08.383Z,8.02
2023-05-21T20:55:35.173Z,6.93
2023-05-21T20:58:05.719Z,7.40
2023-05-21T21:00:33.363Z,7.43
2023-05-21T21:03:01.899Z,7.03
2023-05-21T21:05:28.847Z,7.30
2023-05-21T21:07:56.044Z,7.20
2023-05-21T21:10:22.944Z,6.32
2023-05-21T21:12:49.840Z,7.10
2023-05-21T21:15:16.753Z,7.10
2023-05-21T21:17:43.569Z,6.45
2023-05-21T21:20:12.714Z,6.95
2023-05-21T21:22:39.688Z,7.55
2023-05-21T21:25:06.877Z,10.05
2023-05-21T21:27:33.863Z,10.82
2023-05-21T21:30:00.752Z,7.45
2023-05-21T21:32:27.733Z,7.95
2023-05-21T21:34:54.592Z,6.40
2023-05-21T21:37:21.383Z,6.22
2023-05-21T21:39:48.201Z,6.45
2023-05-21T21:42:15.023Z,6.57
2023-05-21T21:44:42.204Z,6.28
2023-05-21T21:47:09.081Z,6.30
2023-05-21T21:49:35.884Z,6.40
2023-05-21T21:52:02.724Z,6.03
2023-05-21T21:54:29.599Z,6.13
2023-05-21T21:56:56.450Z,5.85
2023-05-21T21:59:23.260Z,6.72
2023-05-21T22:01:50.275Z,5.97
2023-05-21T22:04:17.268Z,6.22
2023-05-21T22:06:45.409Z,6.00
2023-05-21T22:09:12.552Z,6.13
2023-05-21T22:11:39.587Z,5.85
2023-05-21T22:14:06.404Z,6.57
2023-05-21T22:16:34.006Z,5.82
2023-05-21T22:19:01.441Z,5.95
2023-05-21T22:21:29.355Z,5.18
2023-05-21T22:23:56.384Z,5.22
2023-05-21T22:26:23.373Z,5.93
2023-05-21T22:28:50.554Z,5.95
2023-05-21T22:31:17.557Z,6.15
2023-05-21T22:33:44.431Z,6.18
2023-05-21T22:36:11.238Z,6.70
2023-05-21T22:38:38.309Z,7.07
2023-05-21T22:41:05.160Z,6.57
2023-05-21T22:43:33.979Z,6.50
2023-05-21T22:46:01.777Z,5.88
2023-05-21T22:48:30.685Z,6.15
2023-05-21T22:50:58.506Z,5.90
2023-05-21T22:53:25.868Z,6.90
2023-05-21T22:55:53.144Z,6.40
2023-05-21T22:58:19.899Z,6.40
2023-05-21T23:00:49.805Z,6.57
2023-05-21T23:03:16.876Z,6.28
2023-05-21T23:05:43.930Z,5.03
2023-05-21T23:08:10.853Z,5.45
2023-05-21T23:10:37.865Z,5.47
2023-05-21T23:13:04.846Z,5.18
2023-05-21T23:15:31.718Z,5.25
2023-05-21T23:17:59.512Z,5.13
2023-05-21T23:20:26.720Z,5.43
2023-05-21T23:22:53.556Z,5.68
2023-05-21T23:25:20.439Z,5.18
2023-05-21T23:27:47.283Z,5.38
2023-05-21T23:30:14.184Z,5.50
2023-05-21T23:32:41.076Z,5.25
2023-05-21T23:35:10.209Z,5.53
2023-05-21T23:37:37.021Z,5.88
2023-05-21T23:40:04.045Z,5.97
2023-05-21T23:42:30.872Z,5.30
2023-05-21T23:44:57.699Z,5.38
2023-05-21T23:47:25.418Z,5.32
2023-05-21T23:49:52.614Z,5.13
2023-05-21T23:52:19.522Z,5.32
2023-05-21T23:54:46.294Z,5.13
2023-05-21T23:57:13.397Z,5.30
2023-05-21T23:59:40.535Z,5.47
